createdAt,value
2018-05-05T00:00:28.629Z,12.22
2018-05-05T00:01:11.888Z,12.17
2018-05-05T00:01:54.106Z,12.2
2018-05-05T00:02:36.004Z,12.13
2018-05-05T00:03:18.409Z,12.13
2018-05-05T00:03:59.594Z,12.13
2018-05-05T00:04:40.682Z,12.18
2018-05-05T00:05:22.812Z,12.13
2018-05-05T00:06:05.871Z,12.17
2018-05-05T00:06:48.038Z,12.17
2018-05-05T00:07:29.824Z,12.2
2018-05-05T00:08:12.917Z,12.17
2018-05-05T00:08:53.840Z,12.2
2018-05-05T00:09:34.807Z,12.07
2018-05-05T00:10:16.965Z,12.17
2018-05-05T00:10:58.140Z,12.13
2018-05-05T00:11:39.258Z,12.18
2018-05-05T00:12:21.265Z,12.17
2018-05-05T00:13:03.772Z,12.12
2018-05-05T00:13:45.990Z,12.15
2018-05-05T00:14:27.228Z,12.12
2018-05-05T00:15:08.876Z,12.12
2018-05-05T00:15:50.459Z,12.04
2018-05-05T00:16:31.701Z,12.1
2018-05-05T00:17:13.642Z,12.07
2018-05-05T00:17:57.901Z,12.09
2018-05-05T00:18:38.905Z,12.09
2018-05-05T00:19:21.030Z,12.1
2018-05-05T00:20:02.069Z,12.13
2018-05-05T00:20:43.755Z,12.12
2018-05-05T00:21:26.700Z,12.13
2018-05-05T00:22:08.405Z,12.2
2018-05-05T00:22:50.418Z,12.12
2018-05-05T00:23:31.649Z,12.18
2018-05-05T00:24:13.946Z,12.07
2018-05-05T00:24:55.156Z,12.18
2018-05-05T00:25:37.650Z,12.07
2018-05-05T00:26:20.557Z,12.15
2018-05-05T00:27:01.770Z,12.18
2018-05-05T00:27:45.630Z,12.15
2018-05-05T00:28:26.702Z,12.12
2018-05-05T00:29:07.633Z,12.06
2018-05-05T00:29:49.150Z,12.13
2018-05-05T00:30:30.337Z,12.1
2018-05-05T00:31:11.591Z,12
2018-05-05T00:31:52.671Z,12
2018-05-05T00:32:33.855Z,11.95
2018-05-05T00:33:15.019Z,12.06
2018-05-05T00:33:57.607Z,11.99
2018-05-05T00:34:39.357Z,12
2018-05-05T00:35:21.408Z,12
2018-05-05T00:36:02.626Z,11.97
2018-05-05T00:36:44.836Z,12.03
2018-05-05T00:37:26.562Z,11.99
2018-05-05T00:38:10.361Z,12.04
2018-05-05T00:38:51.705Z,12.04
2018-05-05T00:39:32.727Z,12.07
2018-05-05T00:40:14.884Z,12.02
2018-05-05T00:40:55.446Z,12
2018-05-05T00:41:36.492Z,12.04
2018-05-05T00:42:19.128Z,11.95
2018-05-05T00:43:00.053Z,12
2018-05-05T00:43:41.232Z,12.04
2018-05-05T00:44:22.478Z,11.97
2018-05-05T00:45:04.394Z,11.9
2018-05-05T00:45:45.520Z,11.94
2018-05-05T00:46:27.166Z,11.91
2018-05-05T00:47:09.049Z,11.95
2018-05-05T00:47:52.159Z,11.99
2018-05-05T00:48:35.290Z,11.88
2018-05-05T00:49:18.192Z,11.99
2018-05-05T00:50:00.282Z,11.88
2018-05-05T00:50:43.144Z,11.81
2018-05-05T00:51:24.344Z,11.94
2018-05-05T00:52:05.756Z,11.88
2018-05-05T00:52:48.693Z,11.94
2018-05-05T00:53:29.830Z,11.9
2018-05-05T00:54:10.902Z,11.99
2018-05-05T00:54:52.120Z,11.91
2018-05-05T00:55:33.293Z,12
2018-05-05T00:56:14.466Z,11.99
2018-05-05T00:56:55.473Z,11.86
2018-05-05T00:57:39.389Z,11.88
2018-05-05T00:58:20.699Z,11.86
2018-05-05T00:59:01.901Z,11.95
2018-05-05T00:59:44.460Z,11.94
2018-05-05T01:00:25.473Z,11.91
2018-05-05T01:01:06.626Z,11.94
2018-05-05T01:01:49.676Z,11.86
2018-05-05T01:02:30.866Z,11.87
2018-05-05T01:03:12.025Z,11.94
2018-05-05T01:03:53.204Z,11.91
2018-05-05T01:04:35.444Z,11.88
2018-05-05T01:05:16.544Z,11.8
2018-05-05T01:05:57.689Z,11.94
2018-05-05T01:06:39.764Z,11.83
2018-05-05T01:07:22.920Z,11.83
2018-05-05T01:08:04.325Z,11.86
2018-05-05T01:08:45.337Z,11.81
2018-05-05T01:09:27.433Z,11.86
2018-05-05T01:10:09.401Z,11.73
2018-05-05T01:10:51.131Z,11.78
2018-05-05T01:11:33.371Z,11.72
2018-05-05T01:12:14.593Z,11.73
2018-05-05T01:12:55.793Z,11.69
2018-05-05T01:13:39.647Z,11.72
2018-05-05T01:14:23.094Z,11.69
2018-05-05T01:15:04.279Z,11.69
2018-05-05T01:15:45.580Z,11.69
2018-05-05T01:16:26.850Z,11.66
2018-05-05T01:17:08.222Z,11.77
2018-05-05T01:17:49.461Z,11.7
2018-05-05T01:18:31.307Z,11.68
2018-05-05T01:19:13.425Z,11.7
2018-05-05T01:19:55.375Z,11.72
2018-05-05T01:20:36.550Z,11.69
2018-05-05T01:21:18.252Z,11.8
2018-05-05T01:21:59.491Z,11.77
2018-05-05T01:22:40.751Z,11.8
2018-05-05T01:23:22.874Z,11.77
2018-05-05T01:24:04.109Z,11.83
2018-05-05T01:24:45.280Z,11.78
2018-05-05T01:25:26.493Z,11.83
2018-05-05T01:26:08.787Z,11.7
2018-05-05T01:26:49.901Z,11.69
2018-05-05T01:27:31.336Z,11.77
2018-05-05T01:28:13.342Z,11.69
2018-05-05T01:28:54.522Z,11.73
2018-05-05T01:29:35.850Z,11.65
2018-05-05T01:30:18.416Z,11.69
2018-05-05T01:30:59.741Z,11.75
2018-05-05T01:31:41.377Z,11.69
2018-05-05T01:32:22.387Z,11.68
2018-05-05T01:33:03.633Z,11.75
2018-05-05T01:33:45.205Z,11.65
2018-05-05T01:34:26.497Z,11.68
2018-05-05T01:35:07.764Z,11.68
2018-05-05T01:35:50.408Z,11.54
2018-05-05T01:36:31.833Z,11.6
2018-05-05T01:37:13.915Z,11.57
2018-05-05T01:37:55.082Z,11.57
2018-05-05T01:38:36.517Z,11.63
2018-05-05T01:39:18.332Z,11.59
2018-05-05T01:40:01.018Z,11.6
2018-05-05T01:40:42.361Z,11.62
2018-05-05T01:41:23.437Z,11.62
2018-05-05T01:42:05.217Z,11.62
2018-05-05T01:42:49.277Z,11.65
2018-05-05T01:43:31.201Z,11.62
2018-05-05T01:44:13.343Z,11.6
2018-05-05T01:44:54.571Z,11.6
2018-05-05T01:45:35.643Z,11.6
2018-05-05T01:46:18.584Z,11.62
2018-05-05T01:47:00.003Z,11.63
2018-05-05T01:47:41.287Z,11.62
2018-05-05T01:48:24.040Z,11.57
2018-05-05T01:49:05.378Z,11.51
2018-05-05T01:49:47.055Z,11.6
2018-05-05T01:50:29.909Z,11.6
2018-05-05T01:51:11.152Z,11.62
2018-05-05T01:51:53.421Z,11.63
2018-05-05T01:52:35.380Z,11.57
2018-05-05T01:53:16.667Z,11.52
2018-05-05T01:53:59.121Z,11.59
2018-05-05T01:54:41.087Z,11.55
2018-05-05T01:55:22.351Z,11.55
2018-05-05T01:56:05.122Z,11.62
2018-05-05T01:56:46.250Z,11.51
2018-05-05T01:57:27.507Z,11.5
2018-05-05T01:58:08.489Z,11.62
2018-05-05T01:58:50.274Z,11.57
2018-05-05T01:59:32.121Z,11.57
2018-05-05T02:00:14.112Z,11.54
2018-05-05T02:00:55.631Z,11.55
2018-05-05T02:01:40.887Z,11.59
2018-05-05T02:02:22.939Z,11.6
2018-05-05T02:03:04.293Z,11.51
2018-05-05T02:03:45.254Z,11.57
2018-05-05T02:04:26.974Z,11.6
2018-05-05T02:05:08.073Z,11.5
2018-05-05T02:05:49.205Z,11.6
2018-05-05T02:06:30.351Z,11.6
2018-05-05T02:07:11.473Z,11.5
2018-05-05T02:07:52.828Z,11.54
2018-05-05T02:08:34.057Z,11.52
2018-05-05T02:09:15.155Z,11.48
2018-05-05T02:09:56.287Z,11.36
2018-05-05T02:10:37.460Z,11.48
2018-05-05T02:11:19.668Z,11.5
2018-05-05T02:12:01.634Z,11.36
2018-05-05T02:12:42.781Z,11.41
2018-05-05T02:13:24.128Z,11.35
2018-05-05T02:14:05.205Z,11.37
2018-05-05T02:14:46.507Z,11.44
2018-05-05T02:15:30.092Z,11.32
2018-05-05T02:16:11.495Z,11.4
2018-05-05T02:16:52.882Z,11.36
2018-05-05T02:17:36.283Z,11.33
2018-05-05T02:18:17.409Z,11.35
2018-05-05T02:18:58.570Z,11.32
2018-05-05T02:19:44.168Z,11.22
2018-05-05T02:20:26.114Z,11.3
2018-05-05T02:21:07.117Z,11.23
2018-05-05T02:21:48.397Z,11.23
2018-05-05T02:22:30.558Z,11.22
2018-05-05T02:23:13.392Z,11.3
2018-05-05T02:23:54.422Z,11.19
2018-05-05T02:24:36.430Z,11.32
2018-05-05T02:25:17.585Z,11.32
2018-05-05T02:25:58.850Z,11.22
2018-05-05T02:26:40.927Z,11.27
2018-05-05T02:27:22.192Z,11.29
2018-05-05T02:28:03.505Z,11.26
2018-05-05T02:28:45.441Z,11.18
2018-05-05T02:29:26.555Z,11.22
2018-05-05T02:30:07.811Z,11.22
2018-05-05T02:30:48.959Z,11.27
2018-05-05T02:31:30.181Z,11.19
2018-05-05T02:32:11.317Z,11.25
2018-05-05T02:32:53.409Z,11.23
2018-05-05T02:33:35.595Z,11.27
2018-05-05T02:34:16.743Z,11.23
2018-05-05T02:34:58.089Z,11.14
2018-05-05T02:35:39.271Z,11.26
2018-05-05T02:36:20.645Z,11.1
2018-05-05T02:37:02.972Z,11.12
2018-05-05T02:37:44.369Z,11.14
2018-05-05T02:38:26.497Z,11.19
2018-05-05T02:39:09.411Z,11.15
2018-05-05T02:39:52.409Z,11.22
2018-05-05T02:40:34.355Z,11.18
2018-05-05T02:41:16.359Z,11.14
2018-05-05T02:41:58.537Z,11.07
2018-05-05T02:42:42.108Z,11.08
2018-05-05T02:43:24.066Z,11.11
2018-05-05T02:44:05.128Z,11.12
2018-05-05T02:44:46.577Z,11.14
2018-05-05T02:45:27.784Z,11.19
2018-05-05T02:46:09.766Z,11.23
2018-05-05T02:46:50.854Z,11.27
2018-05-05T02:47:33.431Z,11.26
2018-05-05T02:48:15.345Z,11.26
2018-05-05T02:48:57.133Z,11.27
2018-05-05T02:49:38.444Z,11.23
2018-05-05T02:50:21.216Z,11.19
2018-05-05T02:51:03.056Z,11.17
2018-05-05T02:51:44.188Z,11.22
2018-05-05T02:52:25.505Z,11.12
2018-05-05T02:53:08.442Z,11.1
2018-05-05T02:53:50.513Z,11.17
2018-05-05T02:54:32.962Z,11.08
2018-05-05T02:55:18.872Z,11.11
2018-05-05T02:56:01.604Z,11.1
2018-05-05T02:56:42.665Z,11.14
2018-05-05T02:57:25.906Z,11.12
2018-05-05T02:58:09.179Z,11.18
2018-05-05T02:58:51.006Z,11.12
2018-05-05T02:59:32.204Z,11.17
2018-05-05T03:00:13.549Z,11.12
2018-05-05T03:00:55.441Z,11.1
2018-05-05T03:01:36.583Z,11.11
2018-05-05T03:02:18.542Z,11.12
2018-05-05T03:03:00.463Z,11.17
2018-05-05T03:03:41.910Z,11.25
2018-05-05T03:04:24.923Z,11.22
2018-05-05T03:05:06.868Z,11.12
2018-05-05T03:05:47.961Z,11.04
2018-05-05T03:06:29.036Z,11.14
2018-05-05T03:07:10.103Z,11.07
2018-05-05T03:07:52.884Z,11.04
2018-05-05T03:08:34.843Z,11.04
2018-05-05T03:09:17.315Z,11.11
2018-05-05T03:09:58.542Z,10.99
2018-05-05T03:10:39.579Z,11.08
2018-05-05T03:11:22.204Z,11.04
2018-05-05T03:12:04.418Z,11.11
2018-05-05T03:12:47.209Z,11.08
2018-05-05T03:13:29.933Z,11.07
2018-05-05T03:14:11.020Z,11.04
2018-05-05T03:14:52.957Z,11.07
2018-05-05T03:15:35.822Z,11.05
2018-05-05T03:16:17.014Z,11.08
2018-05-05T03:16:58.054Z,11.08
2018-05-05T03:17:39.200Z,11.04
2018-05-05T03:18:20.661Z,11.07
2018-05-05T03:19:02.528Z,11.05
2018-05-05T03:19:44.632Z,11.04
2018-05-05T03:20:27.483Z,11.07
2018-05-05T03:21:10.085Z,11.02
2018-05-05T03:21:51.312Z,11.1
2018-05-05T03:22:33.428Z,11
2018-05-05T03:23:15.519Z,11
2018-05-05T03:23:56.939Z,11.04
2018-05-05T03:24:38.859Z,10.99
2018-05-05T03:25:21.903Z,10.94
2018-05-05T03:26:03.316Z,10.94
2018-05-05T03:26:45.508Z,10.97
2018-05-05T03:27:27.389Z,10.92
2018-05-05T03:28:08.656Z,10.92
2018-05-05T03:28:50.604Z,11.02
2018-05-05T03:29:32.639Z,10.97
2018-05-05T03:30:13.802Z,10.96
2018-05-05T03:30:55.110Z,10.97
2018-05-05T03:31:36.237Z,11.02
2018-05-05T03:32:19.331Z,10.9
2018-05-05T03:33:00.244Z,10.87
2018-05-05T03:33:42.033Z,10.92
2018-05-05T03:34:23.328Z,10.92
2018-05-05T03:35:05.410Z,10.92
2018-05-05T03:35:48.369Z,10.86
2018-05-05T03:36:30.583Z,10.9
2018-05-05T03:37:11.675Z,10.84
2018-05-05T03:37:52.947Z,10.84
2018-05-05T03:38:36.831Z,10.87
2018-05-05T03:39:20.945Z,10.84
2018-05-05T03:40:02.651Z,10.92
2018-05-05T03:40:43.957Z,10.86
2018-05-05T03:41:27.897Z,10.84
2018-05-05T03:42:09.027Z,10.89
2018-05-05T03:42:50.935Z,10.81
2018-05-05T03:43:32.142Z,10.87
2018-05-05T03:44:13.497Z,10.82
2018-05-05T03:44:56.212Z,10.76
2018-05-05T03:45:37.331Z,10.78
2018-05-05T03:46:18.466Z,10.71
2018-05-05T03:46:59.580Z,10.75
2018-05-05T03:47:40.598Z,10.86
2018-05-05T03:48:21.733Z,10.74
2018-05-05T03:49:02.926Z,10.75
2018-05-05T03:49:44.062Z,10.79
2018-05-05T03:50:25.300Z,10.82
2018-05-05T03:51:08.331Z,10.75
2018-05-05T03:51:52.661Z,10.78
2018-05-05T03:52:33.810Z,10.75
2018-05-05T03:53:17.431Z,10.81
2018-05-05T03:53:58.647Z,10.72
2018-05-05T03:54:40.697Z,10.79
2018-05-05T03:55:23.457Z,10.75
2018-05-05T03:56:04.491Z,10.81
2018-05-05T03:56:46.415Z,10.76
2018-05-05T03:57:28.426Z,10.74
2018-05-05T03:58:12.647Z,10.69
2018-05-05T03:58:55.947Z,10.76
2018-05-05T03:59:37.830Z,10.75
2018-05-05T04:00:19.141Z,10.59
2018-05-05T04:01:00.302Z,10.71
2018-05-05T04:01:41.548Z,10.61
2018-05-05T04:02:23.440Z,10.61
2018-05-05T04:03:05.409Z,10.59
2018-05-05T04:03:46.619Z,10.67
2018-05-05T04:04:27.649Z,10.6
2018-05-05T04:05:08.922Z,10.61
2018-05-05T04:05:50.082Z,10.63
2018-05-05T04:06:31.442Z,10.57
2018-05-05T04:07:12.638Z,10.64
2018-05-05T04:07:54.680Z,10.69
2018-05-05T04:08:36.793Z,10.61
2018-05-05T04:09:17.933Z,10.67
2018-05-05T04:09:59.681Z,10.6
2018-05-05T04:10:41.007Z,10.59
2018-05-05T04:11:22.231Z,10.67
2018-05-05T04:12:03.550Z,10.67
2018-05-05T04:12:45.298Z,10.71
2018-05-05T04:13:28.225Z,10.67
2018-05-05T04:14:10.801Z,10.67
2018-05-05T04:14:53.942Z,10.72
2018-05-05T04:15:35.805Z,10.68
2018-05-05T04:16:16.984Z,10.71
2018-05-05T04:17:01.454Z,10.67
2018-05-05T04:17:42.640Z,10.69
2018-05-05T04:18:24.373Z,10.67
2018-05-05T04:19:06.493Z,10.69
2018-05-05T04:19:48.475Z,10.69
2018-05-05T04:20:32.204Z,10.69
2018-05-05T04:21:13.004Z,10.71
2018-05-05T04:21:54.228Z,10.69
2018-05-05T04:22:35.449Z,10.64
2018-05-05T04:23:17.580Z,10.71
2018-05-05T04:24:00.349Z,10.76
2018-05-05T04:24:42.972Z,10.67
2018-05-05T04:25:24.821Z,10.68
2018-05-05T04:26:06.970Z,10.74
2018-05-05T04:26:48.190Z,10.72
2018-05-05T04:27:30.336Z,10.71
2018-05-05T04:28:12.264Z,10.71
2018-05-05T04:28:53.223Z,10.74
2018-05-05T04:29:34.993Z,10.68
2018-05-05T04:30:17.945Z,10.67
2018-05-05T04:30:59.384Z,10.74
2018-05-05T04:31:40.572Z,10.71
2018-05-05T04:32:22.511Z,10.64
2018-05-05T04:33:03.482Z,10.63
2018-05-05T04:33:46.739Z,10.64
2018-05-05T04:34:28.005Z,10.61
2018-05-05T04:35:11.713Z,10.59
2018-05-05T04:35:53.639Z,10.63
2018-05-05T04:36:34.660Z,10.61
2018-05-05T04:37:20.547Z,10.67
2018-05-05T04:38:03.272Z,10.63
2018-05-05T04:38:46.431Z,10.67
2018-05-05T04:39:29.413Z,10.54
2018-05-05T04:40:10.441Z,10.61
2018-05-05T04:40:51.697Z,10.59
2018-05-05T04:41:32.778Z,10.59
2018-05-05T04:42:13.905Z,10.57
2018-05-05T04:42:56.450Z,10.68
2018-05-05T04:43:38.992Z,10.64
2018-05-05T04:44:20.987Z,10.69
2018-05-05T04:45:04.206Z,10.68
2018-05-05T04:45:45.112Z,10.67
2018-05-05T04:46:25.838Z,10.68
2018-05-05T04:47:06.564Z,10.64
2018-05-05T04:47:47.484Z,10.69
2018-05-05T04:48:29.369Z,10.71
2018-05-05T04:49:10.514Z,10.74
2018-05-05T04:49:52.541Z,10.67
2018-05-05T04:50:34.372Z,10.74
2018-05-05T04:51:17.152Z,10.71
2018-05-05T04:51:59.238Z,10.71
2018-05-05T04:52:42.579Z,10.71
2018-05-05T04:53:22.978Z,10.69
2018-05-05T04:54:05.173Z,10.68
2018-05-05T04:54:46.361Z,10.74
2018-05-05T04:55:27.535Z,10.68
2018-05-05T04:56:08.256Z,10.69
2018-05-05T04:56:48.883Z,10.72
2018-05-05T04:57:29.674Z,10.68
2018-05-05T04:58:10.257Z,10.69
2018-05-05T04:58:51.051Z,10.63
2018-05-05T04:59:31.621Z,10.59
2018-05-05T05:00:12.466Z,10.68
2018-05-05T05:00:53.266Z,10.75
2018-05-05T05:01:33.980Z,10.67
2018-05-05T05:02:14.547Z,10.72
2018-05-05T05:02:55.094Z,10.76
2018-05-05T05:03:35.662Z,10.71
2018-05-05T05:04:16.241Z,10.78
2018-05-05T05:04:56.918Z,10.75
2018-05-05T05:05:37.519Z,10.78
2018-05-05T05:06:18.074Z,10.81
2018-05-05T05:06:58.813Z,10.78
2018-05-05T05:07:39.388Z,10.75
2018-05-05T05:08:19.943Z,10.69
2018-05-05T05:09:00.529Z,10.76
2018-05-05T05:09:41.096Z,10.79
2018-05-05T05:10:21.674Z,10.75
2018-05-05T05:11:02.413Z,10.71
2018-05-05T05:11:42.906Z,10.79
2018-05-05T05:12:23.501Z,10.76
2018-05-05T05:13:04.115Z,10.74
2018-05-05T05:13:44.670Z,10.76
2018-05-05T05:14:25.244Z,10.78
2018-05-05T05:15:05.812Z,10.79
2018-05-05T05:15:46.371Z,10.87
2018-05-05T05:16:26.946Z,10.84
2018-05-05T05:17:07.504Z,10.89
2018-05-05T05:17:48.074Z,10.87
2018-05-05T05:18:28.629Z,10.87
2018-05-05T05:19:09.245Z,10.92
2018-05-05T05:19:49.891Z,10.87
2018-05-05T05:20:30.450Z,10.92
2018-05-05T05:21:11.048Z,10.87
2018-05-05T05:21:51.588Z,10.99
2018-05-05T05:22:32.164Z,11.04
2018-05-05T05:23:12.739Z,10.89
2018-05-05T05:23:53.581Z,10.86
2018-05-05T05:24:34.131Z,10.96
2018-05-05T05:25:14.730Z,10.94
2018-05-05T05:25:55.541Z,10.9
2018-05-05T05:26:36.128Z,11
2018-05-05T05:27:17.092Z,11
2018-05-05T05:27:57.646Z,10.92
2018-05-05T05:28:38.492Z,11
2018-05-05T05:29:19.171Z,11
2018-05-05T05:30:00.028Z,10.93
2018-05-05T05:30:40.915Z,10.93
2018-05-05T05:31:21.468Z,11.08
2018-05-05T05:32:02.053Z,11.02
2018-05-05T05:32:42.627Z,11.08
2018-05-05T05:33:23.186Z,11.02
2018-05-05T05:34:03.925Z,11.1
2018-05-05T05:34:44.456Z,11.11
2018-05-05T05:35:25.009Z,11.14
2018-05-05T05:36:05.583Z,11.22
2018-05-05T05:36:46.160Z,11.19
2018-05-05T05:37:26.711Z,11.33
2018-05-05T05:38:07.317Z,11.41
2018-05-05T05:38:47.884Z,11.33
2018-05-05T05:39:28.532Z,11.48
2018-05-05T05:40:09.200Z,11.52
2018-05-05T05:40:49.774Z,11.69
2018-05-05T05:41:30.343Z,11.62
2018-05-05T05:42:11.035Z,11.75
2018-05-05T05:42:51.708Z,11.86
2018-05-05T05:43:33.529Z,11.95
2018-05-05T05:44:16.131Z,12
2018-05-05T05:44:56.704Z,12.13
2018-05-05T05:45:37.313Z,12.25
2018-05-05T05:46:17.877Z,12.24
2018-05-05T05:47:00.224Z,12.31
2018-05-05T05:47:42.826Z,12.37
2018-05-05T05:48:25.367Z,12.46
2018-05-05T05:49:09.483Z,12.49
2018-05-05T05:49:50.972Z,12.55
2018-05-05T05:50:31.568Z,12.65
2018-05-05T05:51:12.167Z,12.78
2018-05-05T05:51:53.109Z,12.7
2018-05-05T05:52:33.735Z,12.95
2018-05-05T05:53:14.323Z,13.03
2018-05-05T05:53:56.210Z,13.05
2018-05-05T05:54:39.246Z,13.15
2018-05-05T05:55:22.963Z,13.19
2018-05-05T05:56:04.008Z,13.25
2018-05-05T05:56:44.625Z,13.37
2018-05-05T05:57:25.403Z,13.37
2018-05-05T05:58:05.977Z,13.44
2018-05-05T05:58:46.590Z,13.37
2018-05-05T05:59:27.164Z,13.46
2018-05-05T06:00:07.889Z,13.41
2018-05-05T06:00:48.481Z,13.54
2018-05-05T06:01:29.111Z,13.5
2018-05-05T06:02:09.788Z,13.54
2018-05-05T06:02:50.404Z,13.56
2018-05-05T06:03:31.888Z,13.83
2018-05-05T06:04:12.650Z,13.95
2018-05-05T06:04:53.415Z,14.11
2018-05-05T06:05:33.987Z,14.18
2018-05-05T06:06:14.650Z,14.23
2018-05-05T06:06:55.246Z,14.33
2018-05-05T06:07:37.284Z,14.44
2018-05-05T06:08:22.605Z,14.53
2018-05-05T06:09:04.874Z,14.5
2018-05-05T06:09:46.230Z,14.45
2018-05-05T06:10:26.066Z,14.6
2018-05-05T06:11:06.647Z,14.6
2018-05-05T06:11:47.306Z,14.68
2018-05-05T06:12:27.854Z,14.65
2018-05-05T06:13:08.436Z,14.81
2018-05-05T06:13:49.022Z,14.79
2018-05-05T06:14:29.619Z,14.88
2018-05-05T06:15:10.184Z,14.91
2018-05-05T06:15:50.805Z,14.94
2018-05-05T06:16:31.373Z,15.06
2018-05-05T06:17:11.971Z,15.1
2018-05-05T06:17:52.532Z,15.17
2018-05-05T06:18:33.112Z,15.18
2018-05-05T06:19:13.706Z,15.29
2018-05-05T06:19:54.286Z,15.27
2018-05-05T06:20:34.867Z,15.33
2018-05-05T06:21:15.435Z,15.44
2018-05-05T06:21:56.031Z,15.54
2018-05-05T06:22:36.601Z,15.55
2018-05-05T06:23:17.294Z,15.72
2018-05-05T06:23:57.876Z,15.77
2018-05-05T06:24:38.499Z,15.83
2018-05-05T06:25:19.278Z,15.86
2018-05-05T06:26:00.406Z,15.92
2018-05-05T06:26:41.648Z,15.98
2018-05-05T06:27:22.900Z,15.95
2018-05-05T06:28:04.471Z,16.01
2018-05-05T06:28:46.208Z,16.04
2018-05-05T06:29:27.337Z,16.15
2018-05-05T06:30:10.435Z,16.2
2018-05-05T06:30:52.220Z,16.23
2018-05-05T06:31:33.182Z,16.32
2018-05-05T06:32:16.990Z,16.36
2018-05-05T06:32:58.318Z,16.43
2018-05-05T06:33:39.280Z,16.57
2018-05-05T06:34:24.011Z,16.53
2018-05-05T06:35:04.189Z,16.57
2018-05-05T06:35:45.288Z,16.57
2018-05-05T06:36:27.882Z,16.58
2018-05-05T06:37:09.289Z,16.61
2018-05-05T06:37:50.857Z,16.69
2018-05-05T06:38:32.640Z,16.68
2018-05-05T06:39:14.554Z,16.68
2018-05-05T06:39:55.713Z,16.83
2018-05-05T06:40:38.384Z,16.94
2018-05-05T06:41:19.723Z,16.97
2018-05-05T06:42:02.575Z,17.05
2018-05-05T06:42:44.619Z,17.02
2018-05-05T06:43:26.759Z,17.09
2018-05-05T06:44:07.942Z,17.29
2018-05-05T06:44:49.725Z,17.26
2018-05-05T06:45:30.837Z,17.31
2018-05-05T06:46:11.542Z,17.42
2018-05-05T06:46:52.948Z,17.52
2018-05-05T06:47:33.528Z,17.59
2018-05-05T06:48:14.099Z,17.71
2018-05-05T06:48:54.670Z,17.78
2018-05-05T06:49:35.257Z,17.89
2018-05-05T06:50:15.836Z,17.87
2018-05-05T06:50:56.417Z,17.92
2018-05-05T06:51:36.994Z,18.01
2018-05-05T06:52:17.580Z,18.08
2018-05-05T06:52:58.150Z,18.11
2018-05-05T06:53:38.765Z,18.11
2018-05-05T06:54:19.379Z,18.23
2018-05-05T06:54:59.965Z,18.26
2018-05-05T06:55:40.550Z,18.26
2018-05-05T06:56:21.141Z,18.37
2018-05-05T06:57:01.791Z,18.35
2018-05-05T06:57:42.331Z,18.29
2018-05-05T06:58:22.919Z,18.38
2018-05-05T06:59:03.489Z,18.43
2018-05-05T06:59:44.070Z,18.45
2018-05-05T07:00:24.704Z,18.59
2018-05-05T07:01:05.304Z,18.55
2018-05-05T07:01:46.000Z,18.66
2018-05-05T07:02:26.682Z,18.66
2018-05-05T07:03:08.141Z,18.77
2018-05-05T07:03:48.705Z,18.74
2018-05-05T07:04:29.290Z,18.75
2018-05-05T07:05:09.929Z,18.78
2018-05-05T07:05:50.754Z,18.78
2018-05-05T07:06:31.384Z,18.93
2018-05-05T07:07:12.772Z,18.86
2018-05-05T07:07:52.552Z,18.89
2018-05-05T07:08:33.278Z,18.9
2018-05-05T07:09:13.959Z,18.88
2018-05-05T07:09:54.492Z,18.75
2018-05-05T07:10:35.067Z,18.89
2018-05-05T07:11:15.649Z,18.83
2018-05-05T07:11:56.226Z,18.81
2018-05-05T07:12:36.849Z,18.89
2018-05-05T07:13:17.422Z,18.92
2018-05-05T07:13:58.012Z,18.99
2018-05-05T07:14:38.588Z,18.92
2018-05-05T07:15:19.210Z,18.93
2018-05-05T07:15:59.779Z,19.02
2018-05-05T07:16:40.357Z,19.02
2018-05-05T07:17:20.974Z,19.14
2018-05-05T07:18:01.516Z,19.18
2018-05-05T07:18:42.109Z,19
2018-05-05T07:19:22.709Z,19.09
2018-05-05T07:20:03.302Z,19.14
2018-05-05T07:20:43.908Z,19.02
2018-05-05T07:21:24.535Z,19.18
2018-05-05T07:22:05.104Z,19.18
2018-05-05T07:22:45.673Z,19.16
2018-05-05T07:23:26.256Z,19.34
2018-05-05T07:24:06.873Z,19.3
2018-05-05T07:24:47.499Z,19.41
2018-05-05T07:25:28.084Z,19.55
2018-05-05T07:26:08.698Z,19.49
2018-05-05T07:26:49.289Z,19.59
2018-05-05T07:27:29.866Z,19.62
2018-05-05T07:28:10.482Z,19.67
2018-05-05T07:28:51.095Z,19.74
2018-05-05T07:29:31.672Z,19.79
2018-05-05T07:30:12.308Z,19.69
2018-05-05T07:30:52.924Z,19.79
2018-05-05T07:31:33.519Z,19.85
2018-05-05T07:32:14.161Z,19.92
2018-05-05T07:32:54.748Z,19.86
2018-05-05T07:33:35.351Z,19.91
2018-05-05T07:34:15.941Z,19.89
2018-05-05T07:34:56.548Z,20
2018-05-05T07:35:37.140Z,20.04
2018-05-05T07:36:17.774Z,19.95
2018-05-05T07:36:58.369Z,20.07
2018-05-05T07:37:38.966Z,20.03
2018-05-05T07:38:19.602Z,20.03
2018-05-05T07:39:00.721Z,20.07
2018-05-05T07:39:41.909Z,20.06
2018-05-05T07:40:22.281Z,20.14
2018-05-05T07:41:02.951Z,20.13
2018-05-05T07:41:43.640Z,20.11
2018-05-05T07:42:24.492Z,20.14
2018-05-05T07:43:05.151Z,20.14
2018-05-05T07:43:45.797Z,20.1
2018-05-05T07:44:26.565Z,20.21
2018-05-05T07:45:07.345Z,20.1
2018-05-05T07:45:48.019Z,20.1
2018-05-05T07:46:28.729Z,20.13
2018-05-05T07:47:09.346Z,20.16
2018-05-05T07:47:49.932Z,20.13
2018-05-05T07:48:30.569Z,20.1
2018-05-05T07:49:11.182Z,20.06
2018-05-05T07:49:51.780Z,20.06
2018-05-05T07:50:32.399Z,20.03
2018-05-05T07:51:13.028Z,20.03
2018-05-05T07:51:53.616Z,19.91
2018-05-05T07:52:34.280Z,19.96
2018-05-05T07:53:14.869Z,19.86
2018-05-05T07:53:55.469Z,19.95
2018-05-05T07:54:36.076Z,19.89
2018-05-05T07:55:16.678Z,19.91
2018-05-05T07:55:57.318Z,19.99
2018-05-05T07:56:37.945Z,19.89
2018-05-05T07:57:18.544Z,19.89
2018-05-05T07:57:59.197Z,19.91
2018-05-05T07:58:39.797Z,19.91
2018-05-05T07:59:20.564Z,19.85
2018-05-05T08:00:01.008Z,19.88
2018-05-05T08:00:41.577Z,19.85
2018-05-05T08:01:22.156Z,19.82
2018-05-05T08:02:02.760Z,19.69
2018-05-05T08:02:43.376Z,19.58
2018-05-05T08:03:23.990Z,19.54
2018-05-05T08:04:04.582Z,19.55
2018-05-05T08:04:45.199Z,19.64
2018-05-05T08:05:25.821Z,19.48
2018-05-05T08:06:06.434Z,19.4
2018-05-05T08:06:47.069Z,19.44
2018-05-05T08:07:27.658Z,19.44
2018-05-05T08:08:08.262Z,19.52
2018-05-05T08:08:48.869Z,19.56
2018-05-05T08:09:29.464Z,19.59
2018-05-05T08:10:10.034Z,19.7
2018-05-05T08:10:50.916Z,19.74
2018-05-05T08:11:32.149Z,19.74
2018-05-05T08:12:13.429Z,19.86
2018-05-05T08:12:55.261Z,19.85
2018-05-05T08:13:39.563Z,20.04
2018-05-05T08:14:21.016Z,19.92
2018-05-05T08:15:03.594Z,19.88
2018-05-05T08:15:44.856Z,19.99
2018-05-05T08:16:26.086Z,19.89
2018-05-05T08:17:08.677Z,20
2018-05-05T08:17:51.805Z,19.99
2018-05-05T08:18:34.843Z,20.03
2018-05-05T08:19:16.822Z,20.03
2018-05-05T08:20:00.318Z,19.96
2018-05-05T08:20:41.674Z,19.96
2018-05-05T08:21:22.993Z,19.92
2018-05-05T08:22:05.730Z,20.03
2018-05-05T08:22:46.527Z,20.02
2018-05-05T08:23:27.191Z,19.96
2018-05-05T08:24:07.789Z,19.95
2018-05-05T08:24:49.326Z,19.94
2018-05-05T08:25:29.744Z,19.94
2018-05-05T08:26:12.848Z,19.92
2018-05-05T08:26:53.675Z,19.91
2018-05-05T08:27:34.272Z,19.89
2018-05-05T08:28:16.711Z,19.89
2018-05-05T08:28:59.356Z,19.88
2018-05-05T08:29:42.292Z,20.04
2018-05-05T08:30:25.034Z,19.91
2018-05-05T08:31:07.214Z,19.91
2018-05-05T08:31:49.119Z,19.94
2018-05-05T08:32:31.289Z,19.92
2018-05-05T08:33:12.570Z,19.92
2018-05-05T08:33:53.826Z,20.09
2018-05-05T08:34:36.321Z,19.95
2018-05-05T08:35:18.360Z,20.04
2018-05-05T08:35:59.598Z,19.96
2018-05-05T08:36:41.825Z,19.91
2018-05-05T08:37:23.111Z,19.99
2018-05-05T08:38:04.533Z,20.02
2018-05-05T08:38:46.831Z,20.02
2018-05-05T08:39:29.057Z,19.95
2018-05-05T08:40:11.377Z,20.04
2018-05-05T08:40:54.097Z,20.02
2018-05-05T08:41:36.283Z,20.02
2018-05-05T08:42:17.663Z,19.99
2018-05-05T08:42:59.572Z,20.03
2018-05-05T08:43:40.935Z,19.94
2018-05-05T08:44:22.208Z,19.99
2018-05-05T08:45:03.610Z,19.95
2018-05-05T08:45:46.346Z,19.94
2018-05-05T08:46:28.349Z,19.95
2018-05-05T08:47:11.661Z,19.95
2018-05-05T08:47:52.986Z,19.96
2018-05-05T08:48:34.340Z,19.91
2018-05-05T08:49:16.531Z,19.89
2018-05-05T08:49:58.340Z,19.92
2018-05-05T08:50:38.894Z,19.85
2018-05-05T08:51:19.507Z,19.84
2018-05-05T08:52:00.073Z,20
2018-05-05T08:52:40.635Z,19.94
2018-05-05T08:53:21.222Z,19.79
2018-05-05T08:54:02.411Z,19.74
2018-05-05T08:54:43.856Z,19.7
2018-05-05T08:55:24.929Z,19.7
2018-05-05T08:56:05.846Z,19.59
2018-05-05T08:56:46.967Z,19.58